TimePDT,TemperatureF,Dew PointF,Humidity,Sea Level PressureIn,VisibilityMPH,Wind Direction,Wind SpeedMPH,Gust SpeedMPH,PrecipitationIn,Events,Conditions,WindDirDegrees,DateUTC
12:15 AM,42.8,35.6,76,30.00,10.0,East,4.6,-,N/A,,Clear,80,2013-05-26 07:15:00
12:35 AM,42.8,37.4,81,30.00,10.0,East,5.8,-,N/A,,Clear,80,2013-05-26 07:35:00
12:55 AM,42.8,37.4,81,30.00,10.0,East,4.6,-,N/A,,Clear,80,2013-05-26 07:55:00
1:15 AM,42.8,35.6,76,30.00,10.0,ENE,5.8,-,N/A,,Clear,60,2013-05-26 08:15:00
1:35 AM,42.8,35.6,76,29.99,10.0,ENE,6.9,-,N/A,,Clear,60,2013-05-26 08:35:00
1:55 AM,41.0,35.6,81,29.99,10.0,ENE,6.9,-,N/A,,Clear,70,2013-05-26 08:55:00
2:15 AM,39.2,35.6,87,29.99,10.0,ENE,5.8,-,N/A,,Clear,60,2013-05-26 09:15:00
2:35 AM,41.0,35.6,81,29.98,10.0,East,6.9,-,N/A,,Clear,80,2013-05-26 09:35:00
2:55 AM,42.8,37.4,81,29.99,10.0,ENE,6.9,-,N/A,,Clear,60,2013-05-26 09:55:00
3:15 AM,42.8,37.4,81,29.98,10.0,East,6.9,-,N/A,,Clear,90,2013-05-26 10:15:00
3:35 AM,42.8,37.4,81,29.98,10.0,East,5.8,-,N/A,,Clear,100,2013-05-26 10:35:00
3:55 AM,42.8,37.4,81,29.98,10.0,East,6.9,-,N/A,,Clear,80,2013-05-26 10:55:00
4:15 AM,41.0,37.4,87,29.98,10.0,ENE,8.1,-,N/A,,Clear,70,2013-05-26 11:15:00
4:35 AM,39.2,35.6,87,29.98,10.0,ENE,6.9,-,N/A,,Clear,70,2013-05-26 11:35:00
4:55 AM,41.0,37.4,87,29.98,10.0,East,6.9,-,N/A,,Clear,80,2013-05-26 11:55:00
5:15 AM,41.0,37.4,87,29.99,10.0,East,9.2,-,N/A,,Clear,80,2013-05-26 12:15:00
5:35 AM,41.0,35.6,81,29.99,10.0,ENE,8.1,-,N/A,,Clear,70,2013-05-26 12:35:00
5:55 AM,39.2,35.6,87,29.99,10.0,ENE,8.1,-,N/A,,Clear,70,2013-05-26 12:55:00
6:15 AM,42.8,37.4,81,29.99,10.0,ENE,8.1,-,N/A,,Clear,70,2013-05-26 13:15:00
6:35 AM,44.6,39.2,81,30.00,10.0,NE,10.4,-,N/A,,Clear,50,2013-05-26 13:35:00
6:55 AM,44.6,39.2,81,29.99,10.0,NE,9.2,-,N/A,,Clear,50,2013-05-26 13:55:00
7:15 AM,46.4,41.0,81,29.99,10.0,NE,11.5,-,N/A,,Partly Cloudy,40,2013-05-26 14:15:00
7:35 AM,48.2,41.0,76,29.99,10.0,NE,11.5,-,N/A,,Scattered Clouds,40,2013-05-26 14:35:00
7:55 AM,48.2,41.0,76,29.98,10.0,NNE,13.8,-,N/A,,Clear,30,2013-05-26 14:55:00
8:15 AM,50.0,39.2,66,29.98,10.0,NNE,13.8,-,N/A,,Clear,30,2013-05-26 15:15:00
8:35 AM,51.8,42.8,71,29.98,10.0,NNE,15.0,-,N/A,,Clear,30,2013-05-26 15:35:00
8:55 AM,53.6,41.0,62,29.98,10.0,NNE,15.0,-,N/A,,Clear,30,2013-05-26 15:55:00
9:15 AM,55.4,42.8,63,29.98,10.0,NE,11.5,-,N/A,,Clear,50,2013-05-26 16:15:00
9:35 AM,55.4,42.8,63,29.97,10.0,NNE,9.2,-,N/A,,Scattered Clouds,20,2013-05-26 16:35:00
9:55 AM,57.2,42.8,59,29.96,10.0,North,11.5,-,N/A,,Scattered Clouds,10,2013-05-26 16:55:00
10:15 AM,59.0,42.8,55,29.95,10.0,NNE,9.2,-,N/A,,Clear,30,2013-05-26 17:15:00
10:35 AM,60.8,42.8,52,29.95,10.0,ENE,8.1,-,N/A,,Clear,60,2013-05-26 17:35:00
10:55 AM,62.6,42.8,48,29.95,10.0,North,8.1,-,N/A,,Clear,360,2013-05-26 17:55:00
11:15 AM,62.6,41.0,45,29.94,10.0,East,5.8,-,N/A,,Clear,80,2013-05-26 18:15:00
11:35 AM,62.6,39.2,42,29.93,10.0,North,3.5,-,N/A,,Clear,360,2013-05-26 18:35:00
11:55 AM,62.6,39.2,42,29.93,10.0,Calm,Calm,-,N/A,,Clear,0,2013-05-26 18:55:00
12:15 PM,64.4,37.4,37,29.93,10.0,West,3.5,-,N/A,,Clear,270,2013-05-26 19:15:00
12:35 PM,66.2,39.2,37,29.92,10.0,Calm,Calm,-,N/A,,Clear,0,2013-05-26 19:35:00
12:55 PM,66.2,39.2,37,29.92,10.0,WSW,5.8,-,N/A,,Clear,250,2013-05-26 19:55:00
1:15 PM,66.2,39.2,37,29.91,10.0,SSW,4.6,-,N/A,,Partly Cloudy,200,2013-05-26 20:15:00
1:35 PM,66.2,39.2,37,29.91,10.0,SW,8.1,-,N/A,,Clear,230,2013-05-26 20:35:00
1:55 PM,66.2,39.2,37,29.90,10.0,Calm,Calm,-,N/A,,Clear,0,2013-05-26 20:55:00
2:15 PM,66.2,37.4,35,29.90,10.0,WSW,3.5,-,N/A,,Clear,240,2013-05-26 21:15:00
2:35 PM,69.8,37.4,31,29.90,10.0,Calm,Calm,-,N/A,,Clear,0,2013-05-26 21:35:00
2:55 PM,69.8,39.2,33,29.89,10.0,Calm,Calm,-,N/A,,Clear,0,2013-05-26 21:55:00
3:15 PM,69.8,39.2,33,29.88,10.0,SSW,5.8,-,N/A,,Clear,200,2013-05-26 22:15:00
3:35 PM,69.8,41.0,35,29.88,10.0,SW,10.4,-,N/A,,Clear,230,2013-05-26 22:35:00
3:55 PM,69.8,39.2,33,29.88,10.0,West,9.2,-,N/A,,Clear,280,2013-05-26 22:55:00
4:15 PM,69.8,37.4,31,29.87,10.0,West,11.5,18.4,N/A,,Clear,280,2013-05-26 23:15:00
4:35 PM,69.8,37.4,31,29.87,10.0,WSW,8.1,-,N/A,,Clear,240,2013-05-26 23:35:00
4:55 PM,69.8,37.4,31,29.88,10.0,West,6.9,-,N/A,,Clear,260,2013-05-26 23:55:00
5:15 PM,69.8,37.4,31,29.87,10.0,West,11.5,17.3,N/A,,Clear,260,2013-05-27 00:15:00
5:35 PM,68.0,37.4,33,29.87,10.0,WSW,11.5,-,N/A,,Scattered Clouds,240,2013-05-27 00:35:00
5:55 PM,66.2,37.4,35,29.87,10.0,WSW,9.2,16.1,N/A,,Mostly Cloudy,240,2013-05-27 00:55:00
6:15 PM,66.2,39.2,37,29.87,10.0,WSW,9.2,-,N/A,,Mostly Cloudy,240,2013-05-27 01:15:00
6:35 PM,69.8,37.4,31,29.88,10.0,WSW,6.9,-,N/A,,Overcast,250,2013-05-27 01:35:00
6:55 PM,68.0,37.4,33,29.88,10.0,West,10.4,-,N/A,,Overcast,270,2013-05-27 01:55:00
7:15 PM,66.2,37.4,35,29.89,10.0,West,12.7,-,N/A,,Overcast,270,2013-05-27 02:15:00
7:35 PM,66.2,37.4,35,29.89,10.0,West,8.1,-,N/A,,Overcast,260,2013-05-27 02:35:00
7:55 PM,62.6,39.2,42,29.90,10.0,SSW,5.8,-,N/A,,Overcast,200,2013-05-27 02:55:00
8:15 PM,62.6,42.8,48,29.91,10.0,South,9.2,-,N/A,,Overcast,170,2013-05-27 03:15:00
8:35 PM,60.8,44.6,55,29.91,10.0,SSE,6.9,-,N/A,,Overcast,150,2013-05-27 03:35:00
8:55 PM,59.0,42.8,55,29.92,10.0,West,5.8,-,N/A,,Mostly Cloudy,260,2013-05-27 03:55:00
9:15 PM,59.0,42.8,55,29.93,10.0,SSW,3.5,-,N/A,,Overcast,200,2013-05-27 04:15:00
9:35 PM,57.2,41.0,55,29.94,10.0,SSW,9.2,-,N/A,,Mostly Cloudy,210,2013-05-27 04:35:00
9:55 PM,55.4,42.8,63,29.95,10.0,South,4.6,-,N/A,,Overcast,180,2013-05-27 04:55:00
10:15 PM,55.4,42.8,63,29.95,10.0,SSW,5.8,-,N/A,,Overcast,210,2013-05-27 05:15:00
10:35 PM,55.4,42.8,63,29.95,10.0,SW,6.9,-,N/A,,Overcast,230,2013-05-27 05:35:00
10:55 PM,55.4,42.8,63,29.95,10.0,SSW,5.8,-,N/A,,Overcast,210,2013-05-27 05:55:00
11:15 PM,55.4,42.8,63,29.95,10.0,SW,5.8,-,N/A,,Overcast,220,2013-05-27 06:15:00
11:35 PM,53.6,42.8,67,29.95,10.0,SSW,6.9,-,N/A,,Overcast,200,2013-05-27 06:35:00
11:55 PM,53.6,44.6,72,29.95,10.0,South,4.6,-,N/A,,Overcast,180,2013-05-27 06:55:00